sensor_id;sensor_type;location;lat;lon;timestamp;P1;durP1;ratioP1;P2;durP2;ratioP2
495;SDS011;39559;48.630;9.162;2024-03-22T00:00:53;27.50;;;14.70;;
495;SDS011;39559;48.630;9.162;2024-03-22T00:03:19;21.27;;;13.23;;
495;SDS011;39559;48.630;9.162;2024-03-22T00:05:45;16.50;;;11.80;;
495;SDS011;39559;48.630;9.162;2024-03-22T00:10:14;20.80;;;12.25;;
495;SDS011;39559;48.630;9.162;2024-03-22T00:12:40;21.40;;;13.50;;
495;SDS011;39559;48.630;9.162;2024-03-22T00:15:06;19.63;;;11.80;;
495;SDS011;39559;48.630;9.162;2024-03-22T00:17:31;17.57;;;10.60;;
495;SDS011;39559;48.630;9.162;2024-03-22T00:19:58;18.05;;;10.45;;
495;SDS011;39559;48.630;9.162;2024-03-22T00:22:24;19.77;;;11.93;;
495;SDS011;39559;48.630;9.162;2024-03-22T00:24:49;19.20;;;11.53;;
495;SDS011;39559;48.630;9.162;2024-03-22T00:27:15;22.00;;;12.90;;
495;SDS011;39559;48.630;9.162;2024-03-22T00:29:40;21.20;;;12.40;;
495;SDS011;39559;48.630;9.162;2024-03-22T00:34:12;17.25;;;11.23;;
495;SDS011;39559;48.630;9.162;2024-03-22T00:36:38;16.23;;;10.77;;
495;SDS011;39559;48.630;9.162;2024-03-22T00:39:03;20.07;;;11.90;;
495;SDS011;39559;48.630;9.162;2024-03-22T00:41:29;23.50;;;12.50;;
495;SDS011;39559;48.630;9.162;2024-03-22T00:43:54;21.57;;;13.30;;
495;SDS011;39559;48.630;9.162;2024-03-22T00:46:20;23.57;;;15.03;;
495;SDS011;39559;48.630;9.162;2024-03-22T00:48:45;26.60;;;14.73;;
495;SDS011;39559;48.630;9.162;2024-03-22T00:51:11;23.27;;;15.30;;
495;SDS011;39559;48.630;9.162;2024-03-22T00:53:36;22.73;;;14.10;;
495;SDS011;39559;48.630;9.162;2024-03-22T00:58:10;22.30;;;13.90;;
495;SDS011;39559;48.630;9.162;2024-03-22T01:00:36;19.70;;;12.93;;
495;SDS011;39559;48.630;9.162;2024-03-22T01:03:03;21.50;;;12.75;;
495;SDS011;39559;48.630;9.162;2024-03-22T01:05:28;21.43;;;13.30;;
495;SDS011;39559;48.630;9.162;2024-03-22T01:07:54;21.37;;;11.93;;
495;SDS011;39559;48.630;9.162;2024-03-22T01:10:19;22.00;;;13.00;;
495;SDS011;39559;48.630;9.162;2024-03-22T01:12:45;22.40;;;12.23;;
495;SDS011;39559;48.630;9.162;2024-03-22T01:15:10;19.30;;;12.13;;
495;SDS011;39559;48.630;9.162;2024-03-22T01:17:36;17.97;;;11.67;;
495;SDS011;39559;48.630;9.162;2024-03-22T01:22:09;19.33;;;12.30;;
495;SDS011;39559;48.630;9.162;2024-03-22T01:24:34;22.70;;;13.10;;
495;SDS011;39559;48.630;9.162;2024-03-22T01:27:00;21.23;;;12.67;;
495;SDS011;39559;48.630;9.162;2024-03-22T01:29:26;25.57;;;13.27;;
495;SDS011;39559;48.630;9.162;2024-03-22T01:31:55;21.52;;;13.77;;
495;SDS011;39559;48.630;9.162;2024-03-22T01:34:21;22.13;;;13.63;;
495;SDS011;39559;48.630;9.162;2024-03-22T01:36:46;20.83;;;14.03;;
495;SDS011;39559;48.630;9.162;2024-03-22T01:39:12;21.53;;;13.47;;
495;SDS011;39559;48.630;9.162;2024-03-22T01:41:39;19.58;;;12.25;;
495;SDS011;39559;48.630;9.162;2024-03-22T01:46:07;19.13;;;12.13;;
495;SDS011;39559;48.630;9.162;2024-03-22T01:48:33;20.47;;;12.40;;
495;SDS011;39559;48.630;9.162;2024-03-22T01:50:59;22.25;;;13.75;;
495;SDS011;39559;48.630;9.162;2024-03-22T01:53:25;22.30;;;14.07;;
495;SDS011;39559;48.630;9.162;2024-03-22T01:55:51;21.05;;;12.15;;
495;SDS011;39559;48.630;9.162;2024-03-22T01:58:17;20.57;;;12.33;;
495;SDS011;39559;48.630;9.162;2024-03-22T02:00:43;24.10;;;13.07;;
495;SDS011;39559;48.630;9.162;2024-03-22T02:03:09;33.10;;;16.47;;
495;SDS011;39559;48.630;9.162;2024-03-22T02:05:34;23.37;;;13.60;;
495;SDS011;39559;48.630;9.162;2024-03-22T02:10:06;23.52;;;14.90;;
495;SDS011;39559;48.630;9.162;2024-03-22T02:12:33;20.08;;;12.88;;
495;SDS011;39559;48.630;9.162;2024-03-22T02:14:59;18.95;;;11.57;;
495;SDS011;39559;48.630;9.162;2024-03-22T02:17:25;21.47;;;12.67;;
495;SDS011;39559;48.630;9.162;2024-03-22T02:19:50;16.80;;;10.73;;
495;SDS011;39559;48.630;9.162;2024-03-22T02:22:16;21.93;;;12.27;;
495;SDS011;39559;48.630;9.162;2024-03-22T02:24:41;19.10;;;12.40;;
495;SDS011;39559;48.630;9.162;2024-03-22T02:27:07;19.70;;;11.77;;
495;SDS011;39559;48.630;9.162;2024-03-22T02:29:32;20.83;;;12.67;;
495;SDS011;39559;48.630;9.162;2024-03-22T02:34:05;23.83;;;13.80;;
495;SDS011;39559;48.630;9.162;2024-03-22T02:36:30;23.80;;;14.20;;
495;SDS011;39559;48.630;9.162;2024-03-22T02:38:56;24.53;;;13.73;;
495;SDS011;39559;48.630;9.162;2024-03-22T02:41:22;22.47;;;13.03;;
495;SDS011;39559;48.630;9.162;2024-03-22T02:43:47;20.13;;;13.10;;
495;SDS011;39559;48.630;9.162;2024-03-22T02:46:13;21.67;;;12.67;;
495;SDS011;39559;48.630;9.162;2024-03-22T02:48:38;17.03;;;11.20;;
495;SDS011;39559;48.630;9.162;2024-03-22T02:51:03;19.10;;;12.07;;
495;SDS011;39559;48.630;9.162;2024-03-22T02:53:29;26.70;;;13.10;;
495;SDS011;39559;48.630;9.162;2024-03-22T02:58:04;18.92;;;12.65;;
495;SDS011;39559;48.630;9.162;2024-03-22T03:00:30;22.27;;;12.98;;
495;SDS011;39559;48.630;9.162;2024-03-22T03:02:56;19.85;;;12.73;;
495;SDS011;39559;48.630;9.162;2024-03-22T03:05:22;21.90;;;13.60;;
495;SDS011;39559;48.630;9.162;2024-03-22T03:07:50;21.65;;;12.95;;
495;SDS011;39559;48.630;9.162;2024-03-22T03:10:16;18.70;;;11.90;;
495;SDS011;39559;48.630;9.162;2024-03-22T03:12:41;20.30;;;12.87;;
495;SDS011;39559;48.630;9.162;2024-03-22T03:15:07;21.13;;;13.20;;
495;SDS011;39559;48.630;9.162;2024-03-22T03:17:33;20.87;;;12.60;;
495;SDS011;39559;48.630;9.162;2024-03-22T03:22:03;22.15;;;13.35;;
495;SDS011;39559;48.630;9.162;2024-03-22T03:24:29;20.30;;;12.60;;
495;SDS011;39559;48.630;9.162;2024-03-22T03:26:54;20.13;;;13.47;;
495;SDS011;39559;48.630;9.162;2024-03-22T03:29:20;24.80;;;13.30;;
495;SDS011;39559;48.630;9.162;2024-03-22T03:31:45;19.20;;;12.17;;
495;SDS011;39559;48.630;9.162;2024-03-22T03:34:11;19.80;;;13.03;;
495;SDS011;39559;48.630;9.162;2024-03-22T03:36:36;23.50;;;12.73;;
495;SDS011;39559;48.630;9.162;2024-03-22T03:39:02;19.70;;;13.37;;
495;SDS011;39559;48.630;9.162;2024-03-22T03:41:29;20.92;;;12.75;;
495;SDS011;39559;48.630;9.162;2024-03-22T03:46:01;22.67;;;13.57;;
495;SDS011;39559;48.630;9.162;2024-03-22T03:48:27;21.90;;;13.47;;
495;SDS011;39559;48.630;9.162;2024-03-22T03:50:53;22.90;;;14.50;;
495;SDS011;39559;48.630;9.162;2024-03-22T03:53:20;23.33;;;14.30;;
495;SDS011;39559;48.630;9.162;2024-03-22T03:55:46;19.45;;;13.60;;
495;SDS011;39559;48.630;9.162;2024-03-22T03:58:12;24.50;;;14.20;;
495;SDS011;39559;48.630;9.162;2024-03-22T04:00:38;22.40;;;14.17;;
495;SDS011;39559;48.630;9.162;2024-03-22T04:03:03;19.70;;;13.17;;
495;SDS011;39559;48.630;9.162;2024-03-22T04:05:29;24.60;;;13.03;;
495;SDS011;39559;48.630;9.162;2024-03-22T04:10:01;23.90;;;13.23;;
495;SDS011;39559;48.630;9.162;2024-03-22T04:12:27;19.75;;;12.60;;
495;SDS011;39559;48.630;9.162;2024-03-22T04:14:54;20.60;;;13.63;;
495;SDS011;39559;48.630;9.162;2024-03-22T04:17:19;21.27;;;13.00;;
495;SDS011;39559;48.630;9.162;2024-03-22T04:19:45;21.90;;;12.90;;
495;SDS011;39559;48.630;9.162;2024-03-22T04:22:10;23.33;;;13.67;;
495;SDS011;39559;48.630;9.162;2024-03-22T04:24:36;18.87;;;12.07;;
495;SDS011;39559;48.630;9.162;2024-03-22T04:27:01;22.07;;;13.47;;
495;SDS011;39559;48.630;9.162;2024-03-22T04:29:27;19.57;;;13.03;;
495;SDS011;39559;48.630;9.162;2024-03-22T04:34:01;24.42;;;13.45;;
495;SDS011;39559;48.630;9.162;2024-03-22T04:36:27;20.40;;;12.80;;
495;SDS011;39559;48.630;9.162;2024-03-22T04:38:52;20.97;;;13.30;;
495;SDS011;39559;48.630;9.162;2024-03-22T04:41:18;21.00;;;13.00;;
495;SDS011;39559;48.630;9.162;2024-03-22T04:43:43;21.00;;;13.90;;
495;SDS011;39559;48.630;9.162;2024-03-22T04:46:09;20.67;;;13.40;;
495;SDS011;39559;48.630;9.162;2024-03-22T04:48:34;19.70;;;13.03;;
495;SDS011;39559;48.630;9.162;2024-03-22T04:51:00;21.77;;;13.93;;
495;SDS011;39559;48.630;9.162;2024-03-22T04:53:25;22.80;;;14.43;;
495;SDS011;39559;48.630;9.162;2024-03-22T04:58:00;22.52;;;14.45;;
495;SDS011;39559;48.630;9.162;2024-03-22T05:00:26;24.77;;;14.30;;
495;SDS011;39559;48.630;9.162;2024-03-22T05:02:52;24.45;;;15.70;;
495;SDS011;39559;48.630;9.162;2024-03-22T05:05:18;21.88;;;13.38;;
495;SDS011;39559;48.630;9.162;2024-03-22T05:07:44;26.60;;;15.27;;
495;SDS011;39559;48.630;9.162;2024-03-22T05:10:10;23.60;;;14.20;;
495;SDS011;39559;48.630;9.162;2024-03-22T05:12:36;24.67;;;14.43;;
495;SDS011;39559;48.630;9.162;2024-03-22T05:15:02;22.30;;;14.87;;
495;SDS011;39559;48.630;9.162;2024-03-22T05:17:29;22.30;;;14.55;;
495;SDS011;39559;48.630;9.162;2024-03-22T05:22:00;26.48;;;15.40;;
495;SDS011;39559;48.630;9.162;2024-03-22T05:24:26;23.63;;;14.57;;
495;SDS011;39559;48.630;9.162;2024-03-22T05:26:52;23.02;;;14.60;;
495;SDS011;39559;48.630;9.162;2024-03-22T05:29:18;22.92;;;14.60;;
495;SDS011;39559;48.630;9.162;2024-03-22T05:31:50;21.60;;;13.33;;
495;SDS011;39559;48.630;9.162;2024-03-22T05:34:17;22.15;;;12.80;;
495;SDS011;39559;48.630;9.162;2024-03-22T05:36:44;20.30;;;13.15;;
495;SDS011;39559;48.630;9.162;2024-03-22T05:39:10;21.45;;;14.10;;
495;SDS011;39559;48.630;9.162;2024-03-22T05:41:37;21.65;;;12.98;;
495;SDS011;39559;48.630;9.162;2024-03-22T05:45:58;18.45;;;12.65;;
495;SDS011;39559;48.630;9.162;2024-03-22T05:48:24;21.70;;;13.13;;
495;SDS011;39559;48.630;9.162;2024-03-22T05:50:51;23.23;;;14.50;;
495;SDS011;39559;48.630;9.162;2024-03-22T05:53:17;23.83;;;13.90;;
495;SDS011;39559;48.630;9.162;2024-03-22T05:55:46;23.20;;;14.83;;
495;SDS011;39559;48.630;9.162;2024-03-22T05:58:11;23.95;;;15.90;;
495;SDS011;39559;48.630;9.162;2024-03-22T06:00:37;26.80;;;15.73;;
495;SDS011;39559;48.630;9.162;2024-03-22T06:03:03;22.38;;;14.98;;
495;SDS011;39559;48.630;9.162;2024-03-22T06:05:29;22.27;;;13.80;;
495;SDS011;39559;48.630;9.162;2024-03-22T06:09:59;20.13;;;13.75;;
495;SDS011;39559;48.630;9.162;2024-03-22T06:12:25;19.83;;;13.93;;
495;SDS011;39559;48.630;9.162;2024-03-22T06:14:50;21.87;;;14.70;;
495;SDS011;39559;48.630;9.162;2024-03-22T06:17:16;22.67;;;14.97;;
495;SDS011;39559;48.630;9.162;2024-03-22T06:19:41;24.87;;;14.33;;
495;SDS011;39559;48.630;9.162;2024-03-22T06:22:07;26.60;;;15.83;;
495;SDS011;39559;48.630;9.162;2024-03-22T06:24:33;21.50;;;14.37;;
495;SDS011;39559;48.630;9.162;2024-03-22T06:26:58;22.50;;;14.30;;
495;SDS011;39559;48.630;9.162;2024-03-22T06:29:24;21.43;;;15.07;;
495;SDS011;39559;48.630;9.162;2024-03-22T06:33:58;25.55;;;15.23;;
495;SDS011;39559;48.630;9.162;2024-03-22T06:36:28;23.95;;;15.25;;
495;SDS011;39559;48.630;9.162;2024-03-22T06:38:57;24.55;;;17.02;;
495;SDS011;39559;48.630;9.162;2024-03-22T06:41:25;25.13;;;16.33;;
495;SDS011;39559;48.630;9.162;2024-03-22T06:43:51;27.58;;;16.90;;
495;SDS011;39559;48.630;9.162;2024-03-22T06:46:17;26.43;;;17.00;;
495;SDS011;39559;48.630;9.162;2024-03-22T06:48:43;28.47;;;18.50;;
495;SDS011;39559;48.630;9.162;2024-03-22T06:51:11;28.63;;;17.08;;
495;SDS011;39559;48.630;9.162;2024-03-22T06:53:37;25.20;;;16.77;;
495;SDS011;39559;48.630;9.162;2024-03-22T06:57:59;26.88;;;17.80;;
495;SDS011;39559;48.630;9.162;2024-03-22T07:00:25;27.00;;;17.43;;
495;SDS011;39559;48.630;9.162;2024-03-22T07:02:51;25.83;;;16.37;;
495;SDS011;39559;48.630;9.162;2024-03-22T07:05:17;24.50;;;15.87;;
495;SDS011;39559;48.630;9.162;2024-03-22T07:07:43;24.70;;;15.70;;
495;SDS011;39559;48.630;9.162;2024-03-22T07:10:10;24.90;;;16.35;;
495;SDS011;39559;48.630;9.162;2024-03-22T07:12:37;23.58;;;16.15;;
495;SDS011;39559;48.630;9.162;2024-03-22T07:15:02;27.70;;;17.17;;
495;SDS011;39559;48.630;9.162;2024-03-22T07:17:29;24.30;;;16.08;;
495;SDS011;39559;48.630;9.162;2024-03-22T07:22:03;26.00;;;17.10;;
495;SDS011;39559;48.630;9.162;2024-03-22T07:24:29;24.07;;;16.33;;
495;SDS011;39559;48.630;9.162;2024-03-22T07:26:54;26.20;;;18.43;;
495;SDS011;39559;48.630;9.162;2024-03-22T07:29:20;29.00;;;17.03;;
495;SDS011;39559;48.630;9.162;2024-03-22T07:31:46;23.17;;;15.82;;
495;SDS011;39559;48.630;9.162;2024-03-22T07:34:12;25.40;;;15.47;;
495;SDS011;39559;48.630;9.162;2024-03-22T07:36:38;24.02;;;15.27;;
495;SDS011;39559;48.630;9.162;2024-03-22T07:39:04;31.27;;;15.65;;
495;SDS011;39559;48.630;9.162;2024-03-22T07:41:34;21.80;;;14.07;;
495;SDS011;39559;48.630;9.162;2024-03-22T07:46:05;25.58;;;13.35;;
495;SDS011;39559;48.630;9.162;2024-03-22T07:48:31;19.60;;;12.87;;
495;SDS011;39559;48.630;9.162;2024-03-22T07:51:00;19.30;;;12.90;;
495;SDS011;39559;48.630;9.162;2024-03-22T07:53:26;17.95;;;12.75;;
495;SDS011;39559;48.630;9.162;2024-03-22T07:55:52;16.67;;;11.77;;
495;SDS011;39559;48.630;9.162;2024-03-22T07:58:19;18.43;;;13.00;;
495;SDS011;39559;48.630;9.162;2024-03-22T08:00:45;19.65;;;13.18;;
495;SDS011;39559;48.630;9.162;2024-03-22T08:03:14;17.20;;;11.67;;
495;SDS011;39559;48.630;9.162;2024-03-22T08:05:41;16.73;;;12.20;;
495;SDS011;39559;48.630;9.162;2024-03-22T08:09:57;18.08;;;12.20;;
495;SDS011;39559;48.630;9.162;2024-03-22T08:12:24;19.33;;;11.35;;
495;SDS011;39559;48.630;9.162;2024-03-22T08:14:49;17.20;;;11.40;;
495;SDS011;39559;48.630;9.162;2024-03-22T08:17:16;16.67;;;10.63;;
495;SDS011;39559;48.630;9.162;2024-03-22T08:19:42;15.90;;;10.53;;
495;SDS011;39559;48.630;9.162;2024-03-22T08:22:07;15.60;;;10.30;;
495;SDS011;39559;48.630;9.162;2024-03-22T08:24:33;17.50;;;9.80;;
495;SDS011;39559;48.630;9.162;2024-03-22T08:26:59;19.30;;;10.30;;
495;SDS011;39559;48.630;9.162;2024-03-22T08:29:25;13.75;;;9.30;;
495;SDS011;39559;48.630;9.162;2024-03-22T08:33:57;12.82;;;8.15;;
495;SDS011;39559;48.630;9.162;2024-03-22T08:36:23;12.90;;;7.93;;
495;SDS011;39559;48.630;9.162;2024-03-22T08:38:49;14.27;;;8.63;;
495;SDS011;39559;48.630;9.162;2024-03-22T08:41:16;13.88;;;8.52;;
495;SDS011;39559;48.630;9.162;2024-03-22T08:43:42;11.73;;;7.78;;
495;SDS011;39559;48.630;9.162;2024-03-22T08:46:12;15.15;;;8.05;;
495;SDS011;39559;48.630;9.162;2024-03-22T08:48:37;12.07;;;7.70;;
495;SDS011;39559;48.630;9.162;2024-03-22T08:51:07;12.57;;;7.67;;
495;SDS011;39559;48.630;9.162;2024-03-22T08:53:32;14.07;;;7.53;;
495;SDS011;39559;48.630;9.162;2024-03-22T08:57:59;12.80;;;7.82;;
495;SDS011;39559;48.630;9.162;2024-03-22T09:00:24;11.57;;;7.57;;
495;SDS011;39559;48.630;9.162;2024-03-22T09:02:50;11.83;;;7.10;;
495;SDS011;39559;48.630;9.162;2024-03-22T09:05:16;13.70;;;7.20;;
495;SDS011;39559;48.630;9.162;2024-03-22T09:07:41;12.50;;;8.30;;
495;SDS011;39559;48.630;9.162;2024-03-22T09:10:08;12.90;;;7.72;;
495;SDS011;39559;48.630;9.162;2024-03-22T09:12:34;12.87;;;8.10;;
495;SDS011;39559;48.630;9.162;2024-03-22T09:15:00;10.52;;;6.78;;
495;SDS011;39559;48.630;9.162;2024-03-22T09:17:25;12.10;;;7.90;;
495;SDS011;39559;48.630;9.162;2024-03-22T09:21:56;11.02;;;7.35;;
495;SDS011;39559;48.630;9.162;2024-03-22T09:24:22;11.70;;;7.00;;
495;SDS011;39559;48.630;9.162;2024-03-22T09:26:48;10.53;;;6.43;;
495;SDS011;39559;48.630;9.162;2024-03-22T09:29:14;12.55;;;6.85;;
495;SDS011;39559;48.630;9.162;2024-03-22T09:31:39;11.50;;;7.50;;
495;SDS011;39559;48.630;9.162;2024-03-22T09:34:05;12.90;;;7.20;;
495;SDS011;39559;48.630;9.162;2024-03-22T09:36:31;11.20;;;6.50;;
495;SDS011;39559;48.630;9.162;2024-03-22T09:39:01;14.97;;;6.70;;
495;SDS011;39559;48.630;9.162;2024-03-22T09:41:28;10.10;;;5.87;;
495;SDS011;39559;48.630;9.162;2024-03-22T09:45:56;10.30;;;6.00;;
495;SDS011;39559;48.630;9.162;2024-03-22T09:48:23;10.00;;;6.00;;
495;SDS011;39559;48.630;9.162;2024-03-22T09:50:49;8.77;;;5.60;;
495;SDS011;39559;48.630;9.162;2024-03-22T09:53:20;9.27;;;5.17;;
495;SDS011;39559;48.630;9.162;2024-03-22T09:55:49;8.90;;;5.37;;
495;SDS011;39559;48.630;9.162;2024-03-22T09:58:15;10.43;;;6.83;;
495;SDS011;39559;48.630;9.162;2024-03-22T10:00:44;16.00;;;6.47;;
495;SDS011;39559;48.630;9.162;2024-03-22T10:03:10;9.40;;;5.50;;
495;SDS011;39559;48.630;9.162;2024-03-22T10:05:36;11.23;;;6.50;;
495;SDS011;39559;48.630;9.162;2024-03-22T10:09:58;12.77;;;6.10;;
495;SDS011;39559;48.630;9.162;2024-03-22T10:12:24;9.17;;;5.10;;
495;SDS011;39559;48.630;9.162;2024-03-22T10:14:52;9.20;;;5.57;;
495;SDS011;39559;48.630;9.162;2024-03-22T10:17:18;8.87;;;5.23;;
495;SDS011;39559;48.630;9.162;2024-03-22T10:19:45;9.33;;;5.17;;
495;SDS011;39559;48.630;9.162;2024-03-22T10:22:15;10.83;;;6.00;;
495;SDS011;39559;48.630;9.162;2024-03-22T10:24:42;10.30;;;6.17;;
495;SDS011;39559;48.630;9.162;2024-03-22T10:27:09;8.87;;;4.70;;
495;SDS011;39559;48.630;9.162;2024-03-22T10:29:38;9.97;;;5.60;;
495;SDS011;39559;48.630;9.162;2024-03-22T10:33:52;8.93;;;5.77;;
495;SDS011;39559;48.630;9.162;2024-03-22T10:36:20;10.10;;;5.83;;
495;SDS011;39559;48.630;9.162;2024-03-22T10:38:47;8.17;;;5.03;;
495;SDS011;39559;48.630;9.162;2024-03-22T10:41:17;11.30;;;6.43;;
495;SDS011;39559;48.630;9.162;2024-03-22T10:43:43;8.93;;;5.43;;
495;SDS011;39559;48.630;9.162;2024-03-22T10:46:08;10.97;;;6.10;;
495;SDS011;39559;48.630;9.162;2024-03-22T10:48:37;9.97;;;5.67;;
495;SDS011;39559;48.630;9.162;2024-03-22T10:51:12;10.20;;;5.60;;
495;SDS011;39559;48.630;9.162;2024-03-22T10:53:41;9.83;;;6.00;;
495;SDS011;39559;48.630;9.162;2024-03-22T10:57:52;9.60;;;5.73;;
495;SDS011;39559;48.630;9.162;2024-03-22T11:00:26;11.03;;;6.00;;
495;SDS011;39559;48.630;9.162;2024-03-22T11:02:53;10.27;;;6.00;;
495;SDS011;39559;48.630;9.162;2024-03-22T11:05:19;10.03;;;5.90;;
495;SDS011;39559;48.630;9.162;2024-03-22T11:07:45;9.30;;;5.20;;
495;SDS011;39559;48.630;9.162;2024-03-22T11:10:14;9.17;;;5.60;;
495;SDS011;39559;48.630;9.162;2024-03-22T11:12:42;8.77;;;5.17;;
495;SDS011;39559;48.630;9.162;2024-03-22T11:15:09;9.80;;;5.67;;
495;SDS011;39559;48.630;9.162;2024-03-22T11:17:35;11.27;;;5.87;;
495;SDS011;39559;48.630;9.162;2024-03-22T11:21:48;9.85;;;6.13;;
495;SDS011;39559;48.630;9.162;2024-03-22T11:24:15;9.57;;;5.57;;
495;SDS011;39559;48.630;9.162;2024-03-22T11:26:51;9.80;;;6.03;;
495;SDS011;39559;48.630;9.162;2024-03-22T11:29:19;12.93;;;6.10;;
495;SDS011;39559;48.630;9.162;2024-03-22T11:31:44;11.97;;;6.90;;
495;SDS011;39559;48.630;9.162;2024-03-22T11:34:10;10.10;;;6.30;;
495;SDS011;39559;48.630;9.162;2024-03-22T11:36:36;11.00;;;6.60;;
495;SDS011;39559;48.630;9.162;2024-03-22T11:39:05;10.70;;;6.27;;
495;SDS011;39559;48.630;9.162;2024-03-22T11:41:31;10.33;;;6.33;;
495;SDS011;39559;48.630;9.162;2024-03-22T11:45:48;11.20;;;6.10;;
495;SDS011;39559;48.630;9.162;2024-03-22T11:48:14;9.53;;;5.53;;
495;SDS011;39559;48.630;9.162;2024-03-22T11:50:39;11.47;;;6.23;;
495;SDS011;39559;48.630;9.162;2024-03-22T11:53:05;13.60;;;6.07;;
495;SDS011;39559;48.630;9.162;2024-03-22T11:55:31;8.30;;;4.80;;
495;SDS011;39559;48.630;9.162;2024-03-22T11:57:57;8.93;;;5.30;;
495;SDS011;39559;48.630;9.162;2024-03-22T12:00:24;10.37;;;6.00;;
495;SDS011;39559;48.630;9.162;2024-03-22T12:02:50;10.13;;;6.13;;
495;SDS011;39559;48.630;9.162;2024-03-22T12:05:20;11.00;;;6.07;;
495;SDS011;39559;48.630;9.162;2024-03-22T12:09:45;10.20;;;5.87;;
495;SDS011;39559;48.630;9.162;2024-03-22T12:12:11;11.93;;;6.30;;
495;SDS011;39559;48.630;9.162;2024-03-22T12:14:39;12.83;;;6.20;;
495;SDS011;39559;48.630;9.162;2024-03-22T12:17:05;10.07;;;5.33;;
495;SDS011;39559;48.630;9.162;2024-03-22T12:19:32;9.70;;;5.47;;
495;SDS011;39559;48.630;9.162;2024-03-22T12:21:58;10.77;;;6.23;;
495;SDS011;39559;48.630;9.162;2024-03-22T12:24:26;10.30;;;6.00;;
495;SDS011;39559;48.630;9.162;2024-03-22T12:26:52;10.27;;;6.10;;
495;SDS011;39559;48.630;9.162;2024-03-22T12:29:18;9.60;;;5.10;;
495;SDS011;39559;48.630;9.162;2024-03-22T12:33:41;10.00;;;5.43;;
495;SDS011;39559;48.630;9.162;2024-03-22T12:36:07;9.67;;;5.83;;
495;SDS011;39559;48.630;9.162;2024-03-22T12:38:33;10.30;;;5.70;;
495;SDS011;39559;48.630;9.162;2024-03-22T12:41:05;10.53;;;6.07;;
495;SDS011;39559;48.630;9.162;2024-03-22T12:43:31;10.57;;;5.77;;
495;SDS011;39559;48.630;9.162;2024-03-22T12:45:56;10.23;;;6.00;;
495;SDS011;39559;48.630;9.162;2024-03-22T12:48:22;11.00;;;6.10;;
495;SDS011;39559;48.630;9.162;2024-03-22T12:50:48;10.50;;;5.87;;
495;SDS011;39559;48.630;9.162;2024-03-22T12:53:14;9.40;;;5.90;;
495;SDS011;39559;48.630;9.162;2024-03-22T12:57:40;9.77;;;5.80;;
495;SDS011;39559;48.630;9.162;2024-03-22T13:00:06;10.97;;;5.80;;
495;SDS011;39559;48.630;9.162;2024-03-22T13:02:39;12.37;;;5.57;;
495;SDS011;39559;48.630;9.162;2024-03-22T13:05:05;9.40;;;4.80;;
495;SDS011;39559;48.630;9.162;2024-03-22T13:07:32;8.47;;;5.17;;
495;SDS011;39559;48.630;9.162;2024-03-22T13:09:58;9.10;;;5.33;;
495;SDS011;39559;48.630;9.162;2024-03-22T13:12:25;10.67;;;5.33;;
495;SDS011;39559;48.630;9.162;2024-03-22T13:14:52;11.50;;;5.40;;
495;SDS011;39559;48.630;9.162;2024-03-22T13:17:18;8.00;;;4.80;;
495;SDS011;39559;48.630;9.162;2024-03-22T13:21:36;8.80;;;4.80;;
495;SDS011;39559;48.630;9.162;2024-03-22T13:24:02;9.93;;;4.90;;
495;SDS011;39559;48.630;9.162;2024-03-22T13:26:27;8.47;;;5.27;;
495;SDS011;39559;48.630;9.162;2024-03-22T13:28:55;8.00;;;4.33;;
495;SDS011;39559;48.630;9.162;2024-03-22T13:31:21;9.93;;;5.00;;
495;SDS011;39559;48.630;9.162;2024-03-22T13:33:46;7.53;;;4.20;;
495;SDS011;39559;48.630;9.162;2024-03-22T13:36:19;9.20;;;4.50;;
495;SDS011;39559;48.630;9.162;2024-03-22T13:38:45;7.90;;;4.27;;
495;SDS011;39559;48.630;9.162;2024-03-22T13:41:10;8.57;;;4.80;;
495;SDS011;39559;48.630;9.162;2024-03-22T13:45:31;8.10;;;4.10;;
495;SDS011;39559;48.630;9.162;2024-03-22T13:47:56;7.97;;;4.80;;
495;SDS011;39559;48.630;9.162;2024-03-22T13:50:22;8.00;;;4.47;;
495;SDS011;39559;48.630;9.162;2024-03-22T13:52:48;16.73;;;4.40;;
495;SDS011;39559;48.630;9.162;2024-03-22T13:55:14;8.20;;;4.10;;
495;SDS011;39559;48.630;9.162;2024-03-22T13:57:39;8.73;;;4.80;;
495;SDS011;39559;48.630;9.162;2024-03-22T14:00:05;6.63;;;3.60;;
495;SDS011;39559;48.630;9.162;2024-03-22T14:02:32;7.77;;;4.30;;
495;SDS011;39559;48.630;9.162;2024-03-22T14:04:58;7.23;;;4.33;;
495;SDS011;39559;48.630;9.162;2024-03-22T14:09:27;8.10;;;4.40;;
495;SDS011;39559;48.630;9.162;2024-03-22T14:11:54;8.00;;;4.17;;
495;SDS011;39559;48.630;9.162;2024-03-22T14:14:20;7.67;;;4.00;;
495;SDS011;39559;48.630;9.162;2024-03-22T14:16:45;7.33;;;3.60;;
495;SDS011;39559;48.630;9.162;2024-03-22T14:19:11;8.40;;;4.00;;
495;SDS011;39559;48.630;9.162;2024-03-22T14:21:37;7.37;;;3.87;;
495;SDS011;39559;48.630;9.162;2024-03-22T14:24:03;10.13;;;3.50;;
495;SDS011;39559;48.630;9.162;2024-03-22T14:26:29;6.57;;;3.40;;
495;SDS011;39559;48.630;9.162;2024-03-22T14:28:56;7.27;;;3.30;;
495;SDS011;39559;48.630;9.162;2024-03-22T14:33:23;6.80;;;3.50;;
495;SDS011;39559;48.630;9.162;2024-03-22T14:35:48;7.60;;;3.50;;
495;SDS011;39559;48.630;9.162;2024-03-22T14:38:14;8.53;;;3.60;;
495;SDS011;39559;48.630;9.162;2024-03-22T14:40:39;6.53;;;3.40;;
495;SDS011;39559;48.630;9.162;2024-03-22T14:43:05;9.03;;;3.37;;
495;SDS011;39559;48.630;9.162;2024-03-22T14:45:31;7.27;;;3.30;;
495;SDS011;39559;48.630;9.162;2024-03-22T14:47:57;6.30;;;2.70;;
495;SDS011;39559;48.630;9.162;2024-03-22T14:50:23;8.10;;;3.00;;
495;SDS011;39559;48.630;9.162;2024-03-22T14:52:49;6.40;;;3.00;;
495;SDS011;39559;48.630;9.162;2024-03-22T14:57:19;7.13;;;3.30;;
495;SDS011;39559;48.630;9.162;2024-03-22T14:59:45;6.30;;;3.07;;
495;SDS011;39559;48.630;9.162;2024-03-22T15:02:21;7.57;;;3.23;;
495;SDS011;39559;48.630;9.162;2024-03-22T15:04:47;7.17;;;2.80;;
495;SDS011;39559;48.630;9.162;2024-03-22T15:07:13;7.47;;;2.77;;
495;SDS011;39559;48.630;9.162;2024-03-22T15:09:40;7.23;;;2.83;;
495;SDS011;39559;48.630;9.162;2024-03-22T15:12:05;6.63;;;3.10;;
495;SDS011;39559;48.630;9.162;2024-03-22T15:14:39;5.80;;;2.77;;
495;SDS011;39559;48.630;9.162;2024-03-22T15:17:05;5.77;;;2.77;;
495;SDS011;39559;48.630;9.162;2024-03-22T15:21:13;8.00;;;2.73;;
495;SDS011;39559;48.630;9.162;2024-03-22T15:23:39;6.37;;;2.50;;
495;SDS011;39559;48.630;9.162;2024-03-22T15:26:14;5.80;;;2.40;;
495;SDS011;39559;48.630;9.162;2024-03-22T15:28:40;5.77;;;2.73;;
495;SDS011;39559;48.630;9.162;2024-03-22T15:31:11;6.37;;;2.50;;
495;SDS011;39559;48.630;9.162;2024-03-22T15:33:36;5.77;;;2.60;;
495;SDS011;39559;48.630;9.162;2024-03-22T15:36:02;5.97;;;2.73;;
495;SDS011;39559;48.630;9.162;2024-03-22T15:38:28;7.63;;;2.80;;
495;SDS011;39559;48.630;9.162;2024-03-22T15:40:53;6.53;;;2.93;;
495;SDS011;39559;48.630;9.162;2024-03-22T15:45:09;6.50;;;3.00;;
495;SDS011;39559;48.630;9.162;2024-03-22T15:47:34;6.23;;;2.77;;
495;SDS011;39559;48.630;9.162;2024-03-22T15:50:00;6.13;;;3.17;;
495;SDS011;39559;48.630;9.162;2024-03-22T15:52:26;6.90;;;3.37;;
495;SDS011;39559;48.630;9.162;2024-03-22T15:54:52;9.17;;;4.10;;
495;SDS011;39559;48.630;9.162;2024-03-22T15:57:19;7.90;;;4.47;;
495;SDS011;39559;48.630;9.162;2024-03-22T15:59:46;7.50;;;3.97;;
495;SDS011;39559;48.630;9.162;2024-03-22T16:02:12;10.20;;;3.90;;
495;SDS011;39559;48.630;9.162;2024-03-22T16:04:38;8.30;;;3.67;;
495;SDS011;39559;48.630;9.162;2024-03-22T16:09:01;8.27;;;3.73;;
495;SDS011;39559;48.630;9.162;2024-03-22T16:11:27;7.33;;;3.77;;
495;SDS011;39559;48.630;9.162;2024-03-22T16:13:53;12.03;;;3.77;;